| time (UTC) | temp F | wind direction | speed MPH | gust MPH | rain 1hr in | rain 24hr in | rain mn in | humidity % | barometer mb |
| 20260503231518 | 66 | 235 | 1.0 | 9.0 | 0.00 | 0.00 | 0.00 | 36 | 1012.9 |
| 20260503230020 | 66 | 238 | 2.0 | 15.0 | 0.00 | 0.00 | 0.00 | 34 | 1013.0 |
| 20260503224514 | 66 | 213 | 5.0 | 16.0 | 0.00 | 0.00 | 0.00 | 33 | 1013.5 |
| 20260503223011 | 66 | 221 | 3.0 | 9.0 | 0.00 | 0.00 | 0.00 | 33 | 1013.9 |
| 20260503221510 | 67 | 360 | 4.0 | 13.0 | 0.00 | 0.00 | 0.00 | 31 | 1014.1 |
| 20260503220010 | 68 | 189 | 3.0 | 12.0 | 0.00 | 0.00 | 0.00 | 31 | 1014.2 |
| 20260503214507 | 68 | 360 | 5.0 | 12.0 | 0.00 | 0.00 | 0.00 | 29 | 1014.5 |
| 20260503213005 | 68 | 219 | 3.0 | 11.0 | 0.00 | 0.00 | 0.00 | 30 | 1014.7 |
| 20260503211504 | 68 | 222 | 4.0 | 10.0 | 0.00 | 0.00 | 0.00 | 29 | 1015.0 |
| 20260503210005 | 68 | 157 | 4.0 | 16.0 | 0.00 | 0.00 | 0.00 | 29 | 1014.9 |
| 20260503204502 | 68 | 360 | 2.0 | 18.0 | 0.00 | 0.00 | 0.00 | 29 | 1015.0 |
| 20260503203105 | 67 | 223 | 4.0 | 11.0 | 0.00 | 0.00 | 0.00 | 29 | 1015.5 |
| 20260503201603 | 67 | 240 | 8.0 | 19.0 | 0.00 | 0.00 | 0.00 | 28 | 1015.8 |
| 20260503200059 | 67 | 185 | 5.0 | 15.0 | 0.00 | 0.00 | 0.00 | 27 | 1016.0 |
| 20260503194552 | 67 | 174 | 5.0 | 16.0 | 0.00 | 0.00 | 0.00 | 26 | 1016.4 |
| 20260503193054 | 67 | 189 | 5.0 | 15.0 | 0.00 | 0.00 | 0.00 | 27 | 1016.9 |
| 20260503191546 | 67 | 165 | 3.0 | 10.0 | 0.00 | 0.00 | 0.00 | 28 | 1017.1 |
| 20260503190043 | 66 | 213 | 3.0 | 16.0 | 0.00 | 0.00 | 0.00 | 27 | 1017.3 |
| 20260503184552 | 67 | 152 | 7.0 | 14.0 | 0.00 | 0.00 | 0.00 | 29 | 1017.7 |
| 20260503183057 | 66 | 315 | 3.0 | 14.0 | 0.00 | 0.00 | 0.00 | 26 | 1017.9 |
| 20260503181535 | 65 | 224 | 3.0 | 13.0 | 0.00 | 0.00 | 0.00 | 25 | 1018.2 |
| 20260503180040 | 65 | 257 | 5.0 | 15.0 | 0.00 | 0.00 | 0.00 | 29 | 1018.3 |
| 20260503174534 | 65 | 134 | 6.0 | 13.0 | 0.00 | 0.00 | 0.00 | 30 | 1018.6 |
| 20260503173044 | 64 | 221 | 2.0 | 14.0 | 0.00 | 0.00 | 0.00 | 35 | 1018.7 |
| 20260503171526 | 64 | 176 | 5.0 | 11.0 | 0.00 | 0.00 | 0.00 | 32 | 1019.0 |
| 20260503100107 | 34 | 313 | 0.0 | 0.0 | 0.00 | 0.00 | 0.00 | 82 | 1019.8 |
| 20260503081549 | 36 | 313 | 0.0 | 0.0 | 0.00 | 0.00 | 0.00 | 81 | 1019.5 |
| 20260503071543 | 38 | 313 | 0.0 | 0.0 | 0.00 | 0.00 | 0.00 | 80 | 1019.4 |
| 20260503054536 | 40 | 313 | 0.0 | 0.0 | 0.00 | 0.00 | 0.00 | 76 | 1019.7 |
| 20260503053035 | 40 | 313 | 0.0 | 0.0 | 0.00 | 0.00 | 0.00 | 75 | 1019.6 |
| 20260503051526 | 41 | 313 | 0.0 | 0.0 | 0.00 | 0.00 | 0.00 | 74 | 1019.6 |
| 20260503050024 | 41 | 313 | 0.0 | 1.0 | 0.00 | 0.00 | 0.00 | 72 | 1019.5 |
| 20260503044522 | 42 | 313 | 0.0 | 0.0 | 0.00 | 0.00 | 0.00 | 70 | 1019.5 |
| 20260503043018 | 43 | 313 | 0.0 | 0.0 | 0.00 | 0.00 | 0.00 | 68 | 1019.4 |
| 20260503041516 | 43 | 313 | 0.0 | 0.0 | 0.00 | 0.00 | 0.00 | 67 | 1019.5 |
| 20260503040012 | 44 | 313 | 0.0 | 0.0 | 0.00 | 0.00 | 0.00 | 67 | 1019.5 |
| 20260503034526 | 45 | 313 | 0.0 | 0.0 | 0.00 | 0.00 | 0.00 | 67 | 1019.4 |
| 20260503033009 | 45 | 313 | 0.0 | 0.0 | 0.00 | 0.00 | 0.00 | 67 | 1019.4 |
| 20260503031508 | 46 | 313 | 0.0 | 1.0 | 0.00 | 0.00 | 0.00 | 66 | 1019.3 |
| 20260503030005 | 47 | 313 | 0.0 | 0.0 | 0.00 | 0.00 | 0.00 | 65 | 1019.3 |
| 20260503024506 | 48 | 313 | 0.0 | 0.0 | 0.00 | 0.00 | 0.00 | 64 | 1019.2 |
| 20260503023004 | 49 | 313 | 0.0 | 0.0 | 0.00 | 0.00 | 0.00 | 63 | 1019.1 |
| 20260503021501 | 50 | 313 | 0.0 | 0.0 | 0.00 | 0.00 | 0.00 | 61 | 1018.9 |
| 20260503020104 | 51 | 313 | 0.0 | 0.0 | 0.00 | 0.00 | 0.00 | 59 | 1018.8 |
| 20260503014624 | 51 | 313 | 0.0 | 0.0 | 0.00 | 0.00 | 0.00 | 57 | 1018.4 |
| 20260503013059 | 52 | 313 | 0.0 | 1.0 | 0.00 | 0.00 | 0.00 | 56 | 1018.3 |
| 20260503011558 | 53 | 313 | 0.0 | 0.0 | 0.00 | 0.00 | 0.00 | 54 | 1018.1 |
| 20260503010058 | 54 | 313 | 0.0 | 0.0 | 0.00 | 0.00 | 0.00 | 51 | 1017.7 |
| 20260503004558 | 55 | 313 | 0.0 | 1.0 | 0.00 | 0.00 | 0.00 | 49 | 1017.6 |
| 20260503003058 | 55 | 311 | 0.0 | 2.0 | 0.00 | 0.00 | 0.00 | 45 | 1017.4 |
| 20260503001556 | 56 | 311 | 0.0 | 2.0 | 0.00 | 0.00 | 0.00 | 43 | 1017.2 |
| 20260503000056 | 56 | 311 | 0.0 | 3.0 | 0.00 | 0.00 | 0.00 | 42 | 1017.0 |
| 20260502234556 | 56 | 298 | 1.0 | 4.0 | 0.00 | 0.00 | 0.00 | 41 | 1016.9 |
| 20260502233101 | 57 | 304 | 1.0 | 4.0 | 0.00 | 0.00 | 0.00 | 41 | 1016.9 |
| 20260502231605 | 57 | 317 | 2.0 | 5.0 | 0.00 | 0.00 | 0.00 | 43 | 1016.8 |